Time;durP1;ratioP1;P1;durP2;ratioP2;P2;SDS_P1;SDS_P2;PMS_P1;PMS_P2;Temp;Humidity;BMP_temperature;BMP_pressure;BME280_temperature;BME280_humidity;BME280_pressure;Samples;Min_cycle;Max_cycle;Signal;HPM_P1;HPM_P2
2022/05/21 00:02:01;;;;;;;9.10;2.87;;;11.80;99.90;;;;;;5049873;28;20636;-63
2022/05/21 00:04:29;;;;;;;8.83;3.27;;;11.80;99.90;;;;;;5047902;28;20536;-64
2022/05/21 00:06:58;;;;;;;6.00;2.80;;;11.80;99.90;;;;;;5049398;28;20703;-63
2022/05/21 00:09:28;;;;;;;9.00;2.87;;;11.80;99.90;;;;;;5048831;28;20207;-64
2022/05/21 00:11:56;;;;;;;6.30;2.97;;;11.80;99.90;;;;;;5041799;28;20188;-63
2022/05/21 00:14:25;;;;;;;9.87;3.00;;;11.80;99.90;;;;;;5079212;28;20201;-63
2022/05/21 00:16:54;;;;;;;8.17;2.80;;;11.90;99.90;;;;;;5047767;28;20602;-64
2022/05/21 00:19:23;;;;;;;7.23;2.83;;;11.90;99.90;;;;;;5047306;28;20197;-63
2022/05/21 00:21:51;;;;;;;8.57;2.97;;;11.80;99.90;;;;;;5046768;28;20200;-64
2022/05/21 00:24:19;;;;;;;6.83;2.77;;;11.80;99.90;;;;;;5046613;28;20209;-63
2022/05/21 00:26:48;;;;;;;7.57;2.70;;;11.80;99.90;;;;;;5043504;28;20583;-64
2022/05/21 00:29:20;;;;;;;6.43;2.50;;;11.80;99.90;;;;;;5048649;28;20216;-64
2022/05/21 00:31:49;;;;;;;4.80;2.40;;;11.80;99.90;;;;;;5040356;28;20276;-64
2022/05/21 00:34:19;;;;;;;5.10;2.50;;;11.80;99.90;;;;;;5044848;28;20221;-64
2022/05/21 00:36:47;;;;;;;5.97;2.80;;;11.80;99.90;;;;;;5043950;28;20208;-63
2022/05/21 00:39:16;;;;;;;6.17;2.87;;;11.80;99.90;;;;;;5048736;28;20250;-63
2022/05/21 00:41:45;;;;;;;10.87;2.90;;;11.70;99.90;;;;;;5054584;28;20207;-64
2022/05/21 00:44:13;;;;;;;9.33;2.77;;;11.70;99.90;;;;;;5049624;28;20700;-63
2022/05/21 00:46:44;;;;;;;15.30;2.80;;;11.70;99.90;;;;;;5048358;28;20195;-64
2022/05/21 00:49:17;;;;;;;7.93;3.30;;;11.60;99.90;;;;;;5046038;28;20235;-64
2022/05/21 00:51:55;;;;;;;8.50;3.43;;;11.60;99.90;;;;;;5049071;28;20208;-63
2022/05/21 00:54:28;;;;;;;9.67;3.50;;;11.50;99.90;;;;;;5055478;28;20241;-63
2022/05/21 00:57:00;;;;;;;7.83;3.13;;;11.50;99.90;;;;;;5046429;28;20196;-63
2022/05/21 00:59:47;;;;;;;10.13;3.40;;;11.50;99.90;;;;;;5050618;28;20609;-63
2022/05/21 01:02:18;;;;;;;8.57;3.10;;;11.50;99.90;;;;;;5047509;28;20204;-63
2022/05/21 01:04:48;;;;;;;5.27;2.87;;;11.50;99.90;;;;;;5045579;28;20218;-63
2022/05/21 01:07:18;;;;;;;5.20;3.07;;;11.40;99.90;;;;;;5047281;28;20201;-63
2022/05/21 01:09:52;;;;;;;8.13;3.13;;;11.50;99.90;;;;;;5050272;28;20232;-63
2022/05/21 01:12:25;;;;;;;7.43;2.90;;;11.40;99.90;;;;;;5047707;28;20568;-63
2022/05/21 01:14:58;;;;;;;7.23;2.93;;;11.40;99.90;;;;;;5044791;28;20200;-63
2022/05/21 01:17:27;;;;;;;5.07;2.80;;;11.40;99.90;;;;;;5048570;28;20596;-63
2022/05/21 01:20:02;;;;;;;9.47;3.50;;;11.40;99.90;;;;;;5052357;28;20197;-63
2022/05/21 01:22:33;;;;;;;7.53;3.30;;;11.30;99.90;;;;;;5045336;28;20688;-63
2022/05/21 01:25:02;;;;;;;8.60;2.97;;;11.30;99.90;;;;;;5049356;28;20716;-64
2022/05/21 01:27:30;;;;;;;5.43;2.87;;;11.40;99.90;;;;;;5048311;28;20192;-63
2022/05/21 01:30:01;;;;;;;10.37;3.27;;;11.40;99.90;;;;;;5046676;28;20212;-63
2022/05/21 01:32:29;;;;;;;6.50;3.03;;;11.40;99.90;;;;;;5042185;28;20228;-63
2022/05/21 01:34:58;;;;;;;11.97;3.50;;;11.40;99.90;;;;;;5048579;28;20229;-63
2022/05/21 01:37:27;;;;;;;7.83;2.97;;;11.40;99.90;;;;;;5047000;28;20197;-63
2022/05/21 01:39:57;;;;;;;6.27;2.87;;;11.40;99.90;;;;;;5048775;28;20201;-63
2022/05/21 01:42:26;;;;;;;5.03;3.07;;;11.40;99.90;;;;;;5048500;28;20189;-64
2022/05/21 01:44:53;;;;;;;5.93;3.03;;;11.40;99.90;;;;;;5048891;28;20292;-63
2022/05/21 01:47:22;;;;;;;6.47;3.07;;;11.40;99.90;;;;;;5043645;28;20236;-63
2022/05/21 01:49:51;;;;;;;6.97;3.73;;;11.50;99.90;;;;;;5045940;28;20204;-63
2022/05/21 01:52:20;;;;;;;9.73;3.40;;;11.40;99.90;;;;;;5048920;28;20201;-63
2022/05/21 01:54:48;;;;;;;8.43;3.27;;;11.50;99.90;;;;;;5046757;28;20272;-63
2022/05/21 01:57:18;;;;;;;13.80;3.50;;;11.40;99.90;;;;;;5048120;28;20203;-64
2022/05/21 01:59:46;;;;;;;9.97;3.80;;;11.40;99.90;;;;;;5048647;28;20287;-63
2022/05/21 02:02:15;;;;;;;8.93;3.10;;;11.40;99.90;;;;;;5050395;28;20193;-64
2022/05/21 02:04:43;;;;;;;6.43;2.83;;;11.40;99.90;;;;;;5049815;28;20219;-63
2022/05/21 02:07:12;;;;;;;6.37;2.90;;;11.40;99.90;;;;;;5050907;28;20296;-63
2022/05/21 02:09:40;;;;;;;14.23;3.87;;;11.40;99.90;;;;;;5053707;28;20192;-63
2022/05/21 02:12:14;;;;;;;17.10;3.50;;;11.40;99.90;;;;;;5050581;28;20200;-63
2022/05/21 02:14:45;;;;;;;7.30;3.30;;;11.40;99.90;;;;;;5048022;28;20192;-63
2022/05/21 02:17:15;;;;;;;8.23;2.90;;;11.40;99.90;;;;;;5075475;28;20259;-64
2022/05/21 02:19:43;;;;;;;8.70;3.40;;;11.40;99.90;;;;;;5048131;28;20266;-63
2022/05/21 02:22:11;;;;;;;9.30;3.23;;;11.30;99.90;;;;;;5050563;28;20255;-63
2022/05/21 02:24:40;;;;;;;7.73;3.30;;;11.40;99.90;;;;;;5051375;28;20224;-63
2022/05/21 02:27:09;;;;;;;5.83;3.20;;;11.30;99.90;;;;;;5042416;28;20225;-63
2022/05/21 02:29:39;;;;;;;8.87;3.40;;;11.30;99.90;;;;;;5049004;28;20200;-63
2022/05/21 02:32:12;;;;;;;9.00;3.47;;;11.30;99.90;;;;;;5050346;28;20228;-63
2022/05/21 02:34:41;;;;;;;7.63;3.47;;;11.30;99.90;;;;;;5050244;28;20279;-63
2022/05/21 02:39:56;;;;;;;8.83;3.67;;;11.30;99.90;;;;;;5057865;28;20549;-64
2022/05/21 02:45:12;;;;;;;9.73;3.33;;;11.30;99.90;;;;;;5051503;28;20635;-63
2022/05/21 02:47:42;;;;;;;13.10;3.53;;;11.20;99.90;;;;;;5050007;28;20696;-63
2022/05/21 02:50:13;;;;;;;12.37;3.57;;;11.20;99.90;;;;;;5051535;28;20291;-63
2022/05/21 02:52:41;;;;;;;7.80;3.37;;;11.20;99.90;;;;;;5049658;28;20611;-64
2022/05/21 02:55:11;;;;;;;6.17;3.40;;;11.20;99.90;;;;;;5049573;28;20225;-63
2022/05/21 02:57:41;;;;;;;12.33;3.83;;;11.20;99.90;;;;;;5047953;28;20205;-63
2022/05/21 03:00:13;;;;;;;12.80;4.20;;;11.20;99.90;;;;;;5049306;28;20230;-63
2022/05/21 03:02:43;;;;;;;7.20;4.23;;;11.20;99.90;;;;;;5048983;28;20185;-63
2022/05/21 03:05:11;;;;;;;15.60;4.23;;;11.20;99.90;;;;;;5050004;28;20614;-63
2022/05/21 03:07:41;;;;;;;8.70;4.40;;;11.20;99.90;;;;;;5048978;28;20215;-63
2022/05/21 03:10:22;;;;;;;10.77;3.57;;;11.20;99.90;;;;;;5052582;28;20254;-65
2022/05/21 03:12:52;;;;;;;11.77;4.20;;;11.20;99.90;;;;;;5050187;28;20205;-63
2022/05/21 03:15:24;;;;;;;15.33;4.33;;;11.10;99.90;;;;;;5031564;28;20272;-63
2022/05/21 03:17:54;;;;;;;10.63;4.33;;;11.10;99.90;;;;;;5052191;28;20223;-63
2022/05/21 03:20:23;;;;;;;14.37;4.30;;;11.10;99.90;;;;;;5051420;28;20196;-63
2022/05/21 03:22:51;;;;;;;12.20;3.93;;;11.10;99.90;;;;;;5083767;28;20297;-63
2022/05/21 03:25:20;;;;;;;9.53;4.00;;;11.10;99.90;;;;;;5084535;28;20216;-63
2022/05/21 03:27:49;;;;;;;8.83;4.30;;;11.10;99.90;;;;;;5049944;28;20232;-64
2022/05/21 03:30:19;;;;;;;14.67;4.20;;;11.10;99.90;;;;;;5052443;28;20224;-64
2022/05/21 03:32:48;;;;;;;10.37;4.30;;;11.10;99.90;;;;;;5044745;28;20221;-64
2022/05/21 03:35:21;;;;;;;16.10;4.53;;;11.10;99.90;;;;;;5051440;28;20274;-63
2022/05/21 03:37:50;;;;;;;7.47;4.53;;;11.10;99.90;;;;;;5048105;28;20574;-63
2022/05/21 03:40:23;;;;;;;15.23;4.63;;;11.10;99.90;;;;;;5051782;28;20200;-64
2022/05/21 03:42:52;;;;;;;19.03;5.27;;;11.10;99.90;;;;;;5053775;28;20664;-63
2022/05/21 03:45:22;;;;;;;17.30;4.93;;;11.10;99.90;;;;;;5045389;28;20636;-63
2022/05/21 03:47:51;;;;;;;17.43;5.23;;;11.10;99.90;;;;;;5041647;28;20595;-64
2022/05/21 03:50:25;;;;;;;18.00;5.53;;;11.10;99.90;;;;;;5050540;28;20698;-63
2022/05/21 03:52:53;;;;;;;16.43;5.77;;;11.10;99.90;;;;;;5049248;28;20193;-64
2022/05/21 03:55:21;;;;;;;16.53;5.43;;;11.10;99.90;;;;;;5043729;28;20194;-63
2022/05/21 03:57:50;;;;;;;16.50;5.17;;;11.10;99.90;;;;;;5050730;28;20209;-63
2022/05/21 04:00:21;;;;;;;21.93;5.73;;;11.20;99.90;;;;;;5049107;28;20204;-64
2022/05/21 04:03:14;;;;;;;26.40;6.50;;;11.20;99.90;;;;;;5049644;28;20266;-63
2022/05/21 04:05:44;;;;;;;18.73;5.20;;;11.30;99.90;;;;;;5044634;28;20204;-64
2022/05/21 04:08:12;;;;;;;17.13;5.40;;;11.40;99.90;;;;;;5045239;28;20609;-63
2022/05/21 04:10:41;;;;;;;21.30;5.67;;;11.50;99.90;;;;;;5046837;28;20199;-63
2022/05/21 04:13:09;;;;;;;25.00;5.57;;;11.50;99.90;;;;;;5047676;28;20723;-64
2022/05/21 04:15:37;;;;;;;21.00;5.03;;;11.60;99.90;;;;;;5047777;28;20201;-64
2022/05/21 04:18:06;;;;;;;24.90;5.47;;;11.60;99.90;;;;;;5078717;28;20199;-64
2022/05/21 04:20:34;;;;;;;15.10;5.60;;;11.70;99.90;;;;;;5049105;28;20284;-64
2022/05/21 04:23:04;;;;;;;13.77;4.83;;;11.70;99.90;;;;;;5048271;28;20660;-64
2022/05/21 04:25:32;;;;;;;16.90;5.17;;;11.70;99.90;;;;;;5048104;28;20228;-63
2022/05/21 04:28:01;;;;;;;20.67;5.30;;;11.90;99.90;;;;;;5050090;28;20353;-64
2022/05/21 04:30:30;;;;;;;13.70;4.40;;;11.90;99.90;;;;;;5050014;28;20193;-64
2022/05/21 04:32:59;;;;;;;16.93;5.37;;;12.00;99.90;;;;;;5044924;28;20307;-64
2022/05/21 04:36:17;;;;;;;19.87;4.97;;;11.90;99.90;;;;;;5049841;28;20231;-63
2022/05/21 04:38:18;;;;;;;17.87;4.53;;;12.00;99.90;;;;;;5044273;28;20235;-63
2022/05/21 04:40:47;;;;;;;16.03;4.70;;;12.10;99.90;;;;;;5043917;28;20236;-64
2022/05/21 04:43:15;;;;;;;14.30;4.67;;;12.00;99.90;;;;;;5020621;28;20189;-64
2022/05/21 04:45:44;;;;;;;14.67;4.27;;;12.00;99.90;;;;;;5050601;28;20209;-64
2022/05/21 04:48:12;;;;;;;19.07;4.67;;;12.10;99.90;;;;;;5081770;28;20222;-64
2022/05/21 04:50:41;;;;;;;13.37;4.13;;;12.10;99.90;;;;;;5048931;28;20670;-64
2022/05/21 04:53:09;;;;;;;16.83;4.37;;;12.20;99.90;;;;;;5047018;28;20189;-64
2022/05/21 04:55:39;;;;;;;19.37;4.73;;;12.10;99.90;;;;;;5046215;28;20605;-63
2022/05/21 04:58:08;;;;;;;20.57;4.87;;;12.20;99.90;;;;;;5049130;28;20666;-64
2022/05/21 05:00:37;;;;;;;17.53;4.53;;;12.20;99.90;;;;;;5048682;28;20651;-64
2022/05/21 05:03:12;;;;;;;16.53;4.63;;;12.20;99.90;;;;;;5080971;28;20664;-63
2022/05/21 05:05:41;;;;;;;19.20;5.40;;;12.20;99.90;;;;;;5049522;28;20236;-64
2022/05/21 05:08:10;;;;;;;14.90;4.30;;;12.20;99.90;;;;;;5048912;28;20193;-64
2022/05/21 05:10:40;;;;;;;11.23;4.57;;;12.40;99.90;;;;;;5045314;28;20657;-63
2022/05/21 05:13:08;;;;;;;11.67;4.37;;;12.40;99.90;;;;;;5080829;28;20224;-63
2022/05/21 05:15:37;;;;;;;21.03;5.00;;;12.40;99.90;;;;;;5048053;28;20192;-64
2022/05/21 05:18:08;;;;;;;20.83;5.37;;;12.50;99.90;;;;;;5049648;28;20193;-63
2022/05/21 05:20:38;;;;;;;19.17;5.33;;;12.50;99.90;;;;;;5048833;28;20201;-64
2022/05/21 05:23:07;;;;;;;18.90;4.77;;;12.60;99.90;;;;;;5051496;28;20548;-64
2022/05/21 05:25:35;;;;;;;22.07;5.77;;;12.70;99.90;;;;;;5043428;28;20228;-64
2022/05/21 05:28:12;;;;;;;25.93;5.47;;;12.70;99.90;;;;;;5039400;28;20197;-64
2022/05/21 05:30:41;;;;;;;17.93;4.57;;;12.80;99.90;;;;;;5049211;28;20250;-63
2022/05/21 05:33:09;;;;;;;21.53;5.00;;;12.90;99.90;;;;;;5048060;28;20227;-64
2022/05/21 05:35:38;;;;;;;17.13;4.90;;;13.00;99.90;;;;;;5046713;28;20221;-63
2022/05/21 05:38:08;;;;;;;21.73;4.40;;;13.10;99.90;;;;;;5052272;28;20213;-64
2022/05/21 05:40:37;;;;;;;17.03;4.40;;;13.10;99.90;;;;;;5046429;28;20201;-63
2022/05/21 05:43:07;;;;;;;23.83;4.70;;;13.20;99.90;;;;;;5056251;28;20235;-63
2022/05/21 05:45:36;;;;;;;16.00;4.30;;;13.20;99.90;;;;;;5047392;28;20299;-64
2022/05/21 05:48:05;;;;;;;23.43;4.90;;;13.20;99.90;;;;;;5045175;28;20201;-64
2022/05/21 05:50:34;;;;;;;21.97;4.70;;;13.40;99.90;;;;;;5045874;28;20292;-64
2022/05/21 05:53:03;;;;;;;21.90;5.17;;;13.60;99.90;;;;;;5084683;28;20311;-64
2022/05/21 05:55:33;;;;;;;20.03;4.03;;;13.80;99.90;;;;;;5048549;28;20201;-64
2022/05/21 05:59:48;;;;;;;18.43;5.03;;;13.90;99.90;;;;;;5052244;28;20200;-64
2022/05/21 06:00:50;;;;;;;21.17;5.10;;;13.90;99.90;;;;;;5046883;28;20224;-64
2022/05/21 06:03:18;;;;;;;20.93;4.70;;;14.10;99.90;;;;;;5048253;28;20545;-64
2022/05/21 06:05:47;;;;;;;19.20;4.50;;;14.10;99.90;;;;;;5051581;28;20216;-64
2022/05/21 06:08:15;;;;;;;14.83;3.90;;;14.20;99.90;;;;;;5051307;28;20201;-64
2022/05/21 06:10:45;;;;;;;14.53;4.17;;;14.20;99.90;;;;;;5048055;28;20209;-64
2022/05/21 06:13:14;;;;;;;19.67;4.83;;;14.20;99.90;;;;;;5050539;28;20292;-64
2022/05/21 06:15:43;;;;;;;21.53;3.97;;;14.20;99.90;;;;;;5080044;28;20224;-64
2022/05/21 06:18:16;;;;;;;19.33;4.23;;;14.20;99.90;;;;;;5049596;28;20224;-64
2022/05/21 06:20:45;;;;;;;18.43;4.20;;;14.30;99.90;;;;;;5083929;28;20201;-64
2022/05/21 06:23:13;;;;;;;18.20;4.40;;;14.30;99.90;;;;;;5052553;28;20189;-64
2022/05/21 06:25:42;;;;;;;15.50;4.60;;;14.30;99.90;;;;;;5049979;28;20307;-64
2022/05/21 06:28:11;;;;;;;14.00;4.27;;;14.40;99.90;;;;;;5048652;28;20268;-64
2022/05/21 06:30:41;;;;;;;15.80;4.37;;;14.40;99.90;;;;;;5048839;28;20192;-64
2022/05/21 06:33:16;;;;;;;21.50;4.87;;;14.30;99.90;;;;;;5044729;28;20216;-64
2022/05/21 06:35:45;;;;;;;17.27;4.40;;;14.30;99.90;;;;;;5039495;28;20339;-63
2022/05/21 06:38:14;;;;;;;12.57;3.83;;;14.40;99.90;;;;;;5047677;28;20279;-63
2022/05/21 06:40:43;;;;;;;15.43;5.10;;;14.60;99.90;;;;;;5047537;28;20310;-64
2022/05/21 06:43:11;;;;;;;19.87;5.40;;;14.70;99.90;;;;;;5051854;28;20196;-63
2022/05/21 06:45:39;;;;;;;21.13;6.37;;;14.90;99.90;;;;;;5045767;28;20207;-64
2022/05/21 06:48:09;;;;;;;19.40;6.47;;;14.80;99.90;;;;;;5045830;28;20273;-63
2022/05/21 06:50:41;;;;;;;19.33;6.07;;;14.90;99.90;;;;;;5048819;28;20287;-63
2022/05/21 06:53:09;;;;;;;20.57;5.43;;;15.10;99.90;;;;;;5080742;28;20191;-63
2022/05/21 06:55:38;;;;;;;21.47;5.13;;;15.20;99.90;;;;;;5041339;28;20223;-64
2022/05/21 06:58:07;;;;;;;17.93;4.57;;;15.20;99.90;;;;;;5045532;28;20219;-64
2022/05/21 07:00:36;;;;;;;15.57;4.03;;;15.20;99.90;;;;;;5048044;28;20285;-64
2022/05/21 07:03:05;;;;;;;19.03;4.53;;;15.40;99.90;;;;;;5051218;28;20220;-63
2022/05/21 07:08:24;;;;;;;15.13;4.20;;;15.30;99.90;;;;;;5049040;28;20194;-63
2022/05/21 07:10:54;;;;;;;13.53;3.93;;;15.40;99.90;;;;;;5049039;28;21089;-64
2022/05/21 07:13:24;;;;;;;14.80;3.87;;;15.50;99.90;;;;;;5034823;28;20213;-64
2022/05/21 07:15:54;;;;;;;17.37;4.47;;;15.70;99.90;;;;;;5050014;28;20762;-63
2022/05/21 07:18:24;;;;;;;10.57;3.93;;;15.50;99.90;;;;;;5079048;28;20197;-63
2022/05/21 07:20:53;;;;;;;14.87;4.20;;;15.50;99.90;;;;;;5052041;28;20203;-63
2022/05/21 07:23:25;;;;;;;19.17;4.57;;;15.60;99.90;;;;;;5047565;28;20202;-64
2022/05/21 07:25:55;;;;;;;14.10;4.63;;;15.80;99.90;;;;;;5046572;28;20204;-64
2022/05/21 07:28:24;;;;;;;12.43;3.87;;;15.80;99.90;;;;;;5044877;28;20819;-63
2022/05/21 07:30:56;;;;;;;13.70;4.27;;;15.80;99.90;;;;;;5043564;28;20209;-63
2022/05/21 07:33:24;;;;;;;17.17;4.40;;;15.80;99.90;;;;;;5049792;28;20223;-64
2022/05/21 07:35:56;;;;;;;16.47;4.20;;;16.00;99.90;;;;;;5040474;28;20322;-64
2022/05/21 07:38:26;;;;;;;15.90;4.30;;;16.00;99.90;;;;;;5041612;28;20193;-64
2022/05/21 07:40:54;;;;;;;22.90;4.63;;;16.20;99.90;;;;;;5050014;28;20222;-64
2022/05/21 07:43:27;;;;;;;16.00;4.30;;;16.30;99.90;;;;;;5048364;28;20282;-63
2022/05/21 07:45:56;;;;;;;17.43;4.60;;;16.30;99.90;;;;;;5043504;28;20618;-64
2022/05/21 07:48:25;;;;;;;13.80;4.20;;;16.50;99.90;;;;;;5047924;28;20196;-64
2022/05/21 07:50:56;;;;;;;16.23;4.50;;;16.60;99.90;;;;;;5046936;28;20200;-64
2022/05/21 07:53:28;;;;;;;13.93;4.37;;;16.50;99.90;;;;;;5048378;28;20280;-64
2022/05/21 07:55:57;;;;;;;14.10;4.27;;;16.60;99.90;;;;;;5046485;28;20204;-64
2022/05/21 07:58:27;;;;;;;12.40;4.27;;;16.90;99.90;;;;;;5052026;28;20223;-64
2022/05/21 08:00:56;;;;;;;13.60;4.17;;;17.10;99.90;;;;;;5050223;28;20195;-64
2022/05/21 08:03:25;;;;;;;12.87;3.97;;;17.20;99.90;;;;;;5049447;28;20193;-64
2022/05/21 08:05:55;;;;;;;21.20;4.17;;;17.10;99.90;;;;;;5049152;28;20201;-65
2022/05/21 08:08:25;;;;;;;18.73;4.67;;;17.00;99.90;;;;;;5044715;28;20239;-64
2022/05/21 08:10:54;;;;;;;14.53;4.20;;;17.10;99.90;;;;;;5048080;28;20528;-64
2022/05/21 08:13:22;;;;;;;14.67;3.83;;;17.20;99.90;;;;;;5082775;28;20533;-64
2022/05/21 08:15:51;;;;;;;16.47;4.57;;;17.30;99.90;;;;;;5052644;28;21022;-64
2022/05/21 08:18:19;;;;;;;11.43;4.07;;;17.30;99.90;;;;;;5048724;28;20568;-64
2022/05/21 08:20:49;;;;;;;17.40;4.03;;;17.30;99.90;;;;;;5038912;28;20268;-64
2022/05/21 08:28:59;;;;;;;17.23;3.67;;;17.70;99.90;;;;;;5013694;28;20207;-64
2022/05/21 08:31:28;;;;;;;14.20;3.70;;;17.60;99.90;;;;;;5062663;28;20200;-64
2022/05/21 08:33:57;;;;;;;15.47;3.67;;;17.70;99.90;;;;;;5043659;28;20835;-63
2022/05/21 08:36:25;;;;;;;16.10;3.60;;;18.00;99.90;;;;;;5059515;28;20280;-64
2022/05/21 08:38:54;;;;;;;19.57;3.63;;;18.20;99.90;;;;;;5051395;28;20252;-64
2022/05/21 08:41:26;;;;;;;16.23;3.80;;;18.10;99.90;;;;;;5047814;28;20209;-64
2022/05/21 08:44:03;;;;;;;12.27;3.30;;;18.00;99.90;;;;;;5046970;28;20212;-64
2022/05/21 08:46:38;;;;;;;14.53;4.03;;;18.10;99.90;;;;;;5054582;28;20231;-65
2022/05/21 08:49:14;;;;;;;15.50;4.33;;;18.20;99.90;;;;;;5049148;28;20735;-65
2022/05/21 08:51:48;;;;;;;14.80;3.90;;;18.50;99.90;;;;;;5049166;28;20654;-64
2022/05/21 08:54:23;;;;;;;10.23;3.00;;;18.80;99.90;;;;;;5051177;28;20264;-64
2022/05/21 08:56:56;;;;;;;10.63;3.93;;;19.00;99.90;;;;;;5046074;28;20653;-64
2022/05/21 08:59:31;;;;;;;14.13;3.87;;;18.80;99.90;;;;;;5045265;28;20198;-64
2022/05/21 09:02:00;;;;;;;13.40;3.73;;;18.60;99.90;;;;;;5075266;28;20204;-64
2022/05/21 09:04:30;;;;;;;12.87;3.60;;;18.30;99.90;;;;;;5049278;28;20197;-64
2022/05/21 09:07:02;;;;;;;17.67;3.60;;;18.10;99.90;;;;;;5059221;28;20232;-64
2022/05/21 09:09:40;;;;;;;11.83;3.63;;;18.10;99.90;;;;;;5044309;28;20260;-64
2022/05/21 09:12:18;;;;;;;16.07;3.83;;;18.40;99.90;;;;;;5043270;28;20196;-64
2022/05/21 09:14:52;;;;;;;12.47;4.00;;;18.50;99.90;;;;;;5046319;28;20226;-64
2022/05/21 09:17:21;;;;;;;12.60;3.73;;;19.00;99.90;;;;;;5046781;28;20188;-64
2022/05/21 09:19:55;;;;;;;15.07;3.50;;;18.50;99.90;;;;;;5047058;28;20370;-64
2022/05/21 09:22:30;;;;;;;15.27;3.47;;;18.20;99.90;;;;;;5044973;28;20197;-63
2022/05/21 09:25:19;;;;;;;13.00;3.20;;;18.50;99.90;;;;;;5039626;28;20205;-64
2022/05/21 09:27:49;;;;;;;13.63;3.67;;;19.10;99.90;;;;;;5043352;28;20225;-64
2022/05/21 09:30:24;;;;;;;16.67;3.63;;;19.50;99.90;;;;;;5043826;28;20201;-64
2022/05/21 09:32:57;;;;;;;11.03;3.57;;;19.00;99.90;;;;;;5044747;28;20204;-64
2022/05/21 09:35:27;;;;;;;12.80;4.07;;;18.60;99.90;;;;;;5049037;28;20703;-64
2022/05/21 09:37:56;;;;;;;12.27;3.70;;;18.90;99.90;;;;;;5047801;28;20278;-63
2022/05/21 09:40:31;;;;;;;9.57;3.47;;;19.60;99.90;;;;;;5046713;28;20222;-64
2022/05/21 09:45:47;;;;;;;10.77;3.40;;;20.80;99.90;;;;;;5049148;28;20204;-64
2022/05/21 09:48:19;;;;;;;12.43;3.23;;;21.20;99.90;;;;;;5050284;28;20255;-64
2022/05/21 09:50:51;;;;;;;7.53;3.03;;;20.70;99.90;;;;;;5050263;28;20201;-64
2022/05/21 09:53:33;;;;;;;11.90;3.20;;;19.80;99.90;;;;;;5049938;28;20235;-64
2022/05/21 09:56:05;;;;;;;10.20;3.40;;;19.80;99.90;;;;;;5042723;28;20199;-63
2022/05/21 09:58:37;;;;;;;10.50;3.73;;;20.20;99.90;;;;;;5080298;28;20198;-64
2022/05/21 10:01:08;;;;;;;13.73;3.87;;;20.40;99.90;;;;;;5041456;28;20277;-64
2022/05/21 10:03:50;;;;;;;7.53;3.10;;;20.80;99.90;;;;;;5046683;28;20614;-64
2022/05/21 10:06:26;;;;;;;9.87;3.63;;;20.40;99.90;;;;;;5042252;28;20244;-64
2022/05/21 10:11:55;;;;;;;12.67;3.33;;;20.80;99.90;;;;;;5045063;28;20263;-64
2022/05/21 10:14:31;;;;;;;10.83;3.43;;;20.70;99.90;;;;;;5051981;28;20203;-64
2022/05/21 10:17:04;;;;;;;10.30;2.80;;;20.60;99.90;;;;;;5046080;28;20622;-64
2022/05/21 10:19:39;;;;;;;10.53;2.90;;;20.60;99.90;;;;;;5072076;28;20190;-64
2022/05/21 10:22:26;;;;;;;8.83;3.23;;;21.00;99.90;;;;;;5050322;28;20197;-64
2022/05/21 10:25:02;;;;;;;11.40;3.10;;;21.00;99.90;;;;;;5048637;28;20193;-63
2022/05/21 10:27:54;;;;;;;11.03;3.43;;;20.70;99.90;;;;;;5073951;28;20686;-63
2022/05/21 10:30:30;;;;;;;8.77;3.10;;;19.90;99.90;;;;;;5046749;28;20284;-64
2022/05/21 10:33:25;;;;;;;8.87;3.33;;;19.20;99.90;;;;;;5042156;28;20209;-64
2022/05/21 10:36:01;;;;;;;13.57;3.00;;;19.30;99.90;;;;;;5043797;28;20312;-64
2022/05/21 10:38:51;;;;;;;8.50;3.10;;;19.30;99.90;;;;;;5047103;28;20279;-63
2022/05/21 10:41:38;;;;;;;12.53;3.27;;;19.20;99.90;;;;;;5071625;28;20278;-64
2022/05/21 10:44:27;;;;;;;8.87;2.90;;;19.10;99.90;;;;;;5048314;28;20212;-63
2022/05/21 10:47:04;;;;;;;8.43;3.17;;;18.90;99.90;;;;;;5059801;28;20206;-63
2022/05/21 10:50:03;;;;;;;13.50;3.50;;;19.00;99.90;;;;;;5049365;28;20301;-64
2022/05/21 10:52:43;;;;;;;6.70;2.30;;;19.80;99.90;;;;;;5064434;28;20224;-64
2022/05/21 10:55:18;;;;;;;6.10;2.43;;;20.30;99.90;;;;;;5040193;28;20800;-64
2022/05/21 10:58:24;;;;;;;8.40;2.80;;;20.80;99.90;;;;;;5043595;28;20248;-64
2022/05/21 11:01:02;;;;;;;8.07;2.77;;;21.50;99.90;;;;;;5035033;28;20214;-63
2022/05/21 11:03:58;;;;;;;7.47;2.40;;;22.20;99.90;;;;;;5047531;28;20200;-64
2022/05/21 11:06:52;;;;;;;6.63;2.50;;;22.70;99.90;;;;;;5043900;28;20212;-64
2022/05/21 11:09:31;;;;;;;8.60;3.20;;;23.10;99.90;;;;;;5043701;28;20229;-64
2022/05/21 11:12:05;;;;;;;6.17;2.90;;;23.00;99.90;;;;;;5050417;28;20604;-64
2022/05/21 11:14:40;;;;;;;8.73;2.90;;;22.20;99.90;;;;;;5041182;28;20231;-63
2022/05/21 11:17:29;;;;;;;9.97;3.30;;;21.50;99.90;;;;;;5046076;28;20238;-64
2022/05/21 11:20:04;;;;;;;7.13;2.83;;;21.50;99.90;;;;;;5052169;28;21846;-64
2022/05/21 11:22:39;;;;;;;5.13;2.50;;;22.00;99.90;;;;;;5047592;28;20196;-64
2022/05/21 11:25:13;;;;;;;5.13;2.00;;;22.40;99.90;;;;;;5077647;28;20207;-64
2022/05/21 11:27:48;;;;;;;4.87;2.00;;;22.90;99.90;;;;;;5047698;28;20192;-64
2022/05/21 11:30:20;;;;;;;5.23;2.23;;;23.10;99.90;;;;;;5043164;28;20229;-64
2022/05/21 11:38:34;;;;;;;4.90;2.40;;;22.30;99.90;;;;;;5050421;28;20563;-64
2022/05/21 11:47:18;;;;;;;4.63;2.70;;;22.20;99.90;;;;;;5051450;28;20203;-64
2022/05/21 11:49:50;;;;;;;10.27;2.10;;;22.20;99.90;;;;;;5034664;28;20229;-64
2022/05/21 11:53:00;;;;;;;8.33;2.37;;;22.20;99.90;;;;;;5046875;28;20231;-65
2022/05/21 11:55:30;;;;;;;6.47;2.53;;;22.20;99.90;;;;;;5045339;28;20198;-64
2022/05/21 11:58:00;;;;;;;8.17;2.40;;;22.50;99.90;;;;;;5048018;28;20193;-64
2022/05/21 12:00:49;;;;;;;7.17;2.93;;;22.60;99.90;;;;;;5043646;28;20631;-64
2022/05/21 12:03:25;;;;;;;9.90;2.57;;;22.70;99.90;;;;;;5043254;28;20204;-64
2022/05/21 12:06:16;;;;;;;7.60;2.73;;;22.00;99.90;;;;;;5048259;28;20206;-64
2022/05/21 12:08:48;;;;;;;8.60;2.90;;;21.50;99.90;;;;;;5039494;28;20242;-64
2022/05/21 12:11:45;;;;;;;7.43;2.57;;;21.30;99.90;;;;;;5042629;28;20304;-64
2022/05/21 12:14:27;;;;;;;6.97;2.30;;;20.90;99.90;;;;;;5047972;28;20251;-64
2022/05/21 12:16:59;;;;;;;8.17;2.57;;;20.80;99.90;;;;;;5048400;28;20197;-64
2022/05/21 12:20:06;;;;;;;9.50;2.47;;;21.20;99.90;;;;;;5047704;28;20203;-64
2022/05/21 12:22:52;;;;;;;6.00;2.60;;;21.50;99.90;;;;;;5048054;28;20193;-64
2022/05/21 12:25:59;;;;;;;8.10;2.33;;;21.70;99.90;;;;;;5038876;28;20196;-65
2022/05/21 12:28:42;;;;;;;8.77;2.50;;;21.80;99.90;;;;;;5008519;28;20311;-64
2022/05/21 12:31:14;;;;;;;6.03;2.20;;;21.90;99.90;;;;;;5048303;28;20595;-64
2022/05/21 12:33:52;;;;;;;8.43;2.33;;;22.00;99.90;;;;;;5030026;28;20193;-63
2022/05/21 12:36:32;;;;;;;5.20;2.20;;;21.90;99.90;;;;;;5045614;28;20313;-64
2022/05/21 12:39:03;;;;;;;6.23;2.33;;;22.00;99.90;;;;;;5051592;28;20275;-64
2022/05/21 12:41:37;;;;;;;5.00;2.33;;;22.20;99.90;;;;;;5051336;28;21288;-65
2022/05/21 12:44:06;;;;;;;3.87;2.30;;;22.00;99.90;;;;;;5035920;28;20197;-64
2022/05/21 12:46:36;;;;;;;5.33;2.13;;;22.10;99.90;;;;;;5049505;28;20665;-64
2022/05/21 12:49:09;;;;;;;4.10;1.93;;;22.10;99.90;;;;;;5049515;28;20305;-64
2022/05/21 12:51:40;;;;;;;4.27;1.90;;;22.10;99.90;;;;;;5050206;28;20298;-64
2022/05/21 12:54:20;;;;;;;9.53;2.53;;;22.00;99.90;;;;;;5051238;28;20276;-64
2022/05/21 12:56:50;;;;;;;6.27;1.90;;;21.70;99.90;;;;;;5038360;28;20220;-64
2022/05/21 12:59:20;;;;;;;3.67;2.27;;;21.70;99.90;;;;;;5046844;28;20204;-65
2022/05/21 13:01:56;;;;;;;4.77;2.27;;;21.90;99.90;;;;;;5044414;28;20204;-64
2022/05/21 13:04:28;;;;;;;3.57;1.70;;;22.20;99.90;;;;;;5049969;28;20320;-65
2022/05/21 13:07:00;;;;;;;7.30;2.33;;;22.50;99.90;;;;;;5047556;28;20285;-64
2022/05/21 13:09:31;;;;;;;3.33;1.80;;;22.80;99.90;;;;;;5048465;28;20547;-64
2022/05/21 13:12:02;;;;;;;6.43;2.20;;;22.70;99.90;;;;;;5051395;28;20197;-64
2022/05/21 13:14:35;;;;;;;7.00;2.20;;;22.70;99.90;;;;;;5049226;28;20189;-64
2022/05/21 13:17:05;;;;;;;6.60;2.10;;;22.80;99.90;;;;;;5047696;28;20193;-64
2022/05/21 13:19:54;;;;;;;6.67;2.23;;;22.60;99.90;;;;;;5049636;28;20189;-64
2022/05/21 13:22:48;;;;;;;4.27;1.73;;;22.40;99.90;;;;;;5051010;28;20197;-64
2022/05/21 13:25:17;;;;;;;5.83;2.30;;;22.40;99.90;;;;;;5044009;28;20245;-64
2022/05/21 13:27:50;;;;;;;6.13;2.20;;;22.60;99.90;;;;;;5047979;28;20233;-64
2022/05/21 13:30:20;;;;;;;3.13;1.63;;;22.70;99.90;;;;;;5046420;28;20218;-64
2022/05/21 13:32:55;;;;;;;6.30;1.80;;;22.70;99.90;;;;;;5056813;28;20189;-65
2022/05/21 13:35:29;;;;;;;3.60;2.00;;;23.00;99.90;;;;;;5047039;28;20567;-64
2022/05/21 13:37:57;;;;;;;5.27;1.80;;;22.90;99.90;;;;;;5048880;28;20202;-64
2022/05/21 13:40:28;;;;;;;4.70;1.90;;;23.00;99.90;;;;;;5045420;28;20185;-64